Airfield :
LOGIN :

Register | Disclaimer

   EN    FR    IT 

 










Legend :    VFR   Marginal VFR   IFR   Intensive IFR   Very Intensive IFR
Visi :
Ceiling :
>= 8 km
>= 3000ft
5 to 8 km
1000 to 3000 ft
1500m to 5 km
500 to 1000 ft
800 to 1500m
200 to 500 ft
< 800m
< 200 ft
Symbols :   Thunderstorms  Fog  Heavy snow  Heavy precipitations  Wind > 20 kt
SIGMETs :     Misc.  Thunderstorms  Icing  Turbulence  Mountain Waves  Volcanic Ashes






- Airport Elevation : 1455 ft


ETIH - Hohenfels Army Air Field

CURRENT METAR :
  • 050256Z AUTO 00000KT 0600 FG VV001 10/09 A3013 RMK AO2 VIS 0600V1400 SLP203 T00980090 52003 RVRNO $

EXPIRED METARs :
  • 050246Z AUTO 00000KT 1400 BR VV001 10/09 A3013 RMK AO2 VIS 1400V3200 SLP203 RVRNO $
  • 050221Z AUTO 00000KT 6000 BR OVC001 10/09 A3013 RMK AO2 SLP203 $
  • 050216Z AUTO 00000KT 2800 BR BKN000 10/09 A3013 RMK AO2 VIS 0800V3000 SLP203 $
  • 050206Z AUTO 00000KT 1000 BR BKN000 10/09 A3013 RMK AO2 VIS 0800V1600 BKN V FEW SLP203 RVRNO $
  • 050111Z AUTO 00000KT 1000 BR CLR 10/09 A3013 RMK AO2 SLP203 RVRNO $
  • 050106Z AUTO 00000KT 1600 BR CLR 10/10 A3012 RMK AO2 VIS 1400V3600 SLP200 RVRNO $
  • 050056Z AUTO 00000KT 4000 BR CLR 10/10 A3012 RMK AO2 VIS 4000V9999 SLP200 T01040096 $

Expired Forecast.



MET'MAP, your aeronautical weather chart ! - Copyright ORBIFLY December 2007 - Disclaimer

ORBIFLY MET'MAP TEAM :

Programming & Development : Alexandra Zaïnal
Concept & original design : Baudouin d'Aumeries
Assistance for programming : Marc-Olivier Méhu
Technical & hardware support : Manuel Goepfert

Contact : metmap@orbifly.com




SOURCES & CREDITS :

   NOAA